Time;durP1;ratioP1;P1;durP2;ratioP2;P2;SDS_P1;SDS_P2;PMS_P1;PMS_P2;Temp;Humidity;BMP_temperature;BMP_pressure;BME280_temperature;BME280_humidity;BME280_pressure;Samples;Min_cycle;Max_cycle;Signal;HPM_P1;HPM_P2
2024/04/03 00:02:48;;;;;;;1.02;0.50;;;1.40;99.90;;;;;;8406287;28;20048;-83
2024/04/03 00:06:48;;;;;;;3.33;1.17;;;1.40;99.90;;;;;;8401441;28;20031;-83
2024/04/03 00:10:49;;;;;;;2.85;1.42;;;1.40;99.90;;;;;;8400269;28;20040;-84
2024/04/03 00:14:49;;;;;;;0.95;0.73;;;1.40;99.90;;;;;;8398267;28;20032;-84
2024/04/03 00:18:50;;;;;;;2.25;0.80;;;1.30;99.90;;;;;;8418257;28;20518;-82
2024/04/03 00:22:50;;;;;;;4.63;1.30;;;1.30;99.90;;;;;;8417345;28;20059;-84
2024/04/03 00:26:51;;;;;;;0.88;0.32;;;1.20;99.90;;;;;;8412417;28;20081;-84
2024/04/03 00:30:55;;;;;;;0.70;0.40;;;1.20;99.90;;;;;;8405764;28;20039;-85
2024/04/03 00:34:55;;;;;;;1.40;0.50;;;1.50;99.90;;;;;;8419038;28;20052;-84
2024/04/03 00:38:56;;;;;;;0.85;0.60;;;1.70;99.90;;;;;;8408555;28;20039;-83
2024/04/03 00:43:07;;;;;;;2.70;0.77;;;1.80;99.90;;;;;;8417742;28;20024;-84
2024/04/03 00:47:08;;;;;;;0.60;0.40;;;1.80;99.90;;;;;;8407929;28;20523;-84
2024/04/03 00:51:10;;;;;;;2.25;0.52;;;1.70;99.90;;;;;;8406183;28;20025;-81
2024/04/03 00:55:11;;;;;;;0.40;0.40;;;1.60;99.90;;;;;;8413868;28;20034;-82
2024/04/03 00:59:12;;;;;;;2.50;0.60;;;1.60;99.90;;;;;;8397965;28;20052;-83
2024/04/03 01:03:12;;;;;;;0.70;0.55;;;1.90;99.90;;;;;;8400740;28;20043;-83
2024/04/03 01:07:13;;;;;;;0.47;0.47;;;1.80;99.90;;;;;;8399257;28;20025;-83
2024/04/03 01:11:14;;;;;;;1.13;0.70;;;1.60;99.90;;;;;;8402778;28;20036;-83
2024/04/03 01:15:14;;;;;;;1.13;0.50;;;1.50;99.90;;;;;;8399082;28;20067;-84
2024/04/03 01:19:15;;;;;;;0.82;0.50;;;1.50;99.90;;;;;;8399483;28;20108;-82
2024/04/03 01:23:15;;;;;;;0.57;0.50;;;1.60;99.90;;;;;;8397997;28;20028;-83
2024/04/03 01:27:16;;;;;;;0.50;0.30;;;1.60;99.90;;;;;;8394457;28;20032;-85
2024/04/03 01:31:16;;;;;;;0.93;0.50;;;1.60;99.90;;;;;;8399563;28;20451;-83
2024/04/03 01:35:17;;;;;;;0.75;0.55;;;1.60;99.90;;;;;;8400564;28;20024;-82
2024/04/03 01:39:17;;;;;;;2.78;0.70;;;1.40;99.90;;;;;;8392652;28;20028;-82
2024/04/03 01:43:18;;;;;;;0.80;0.52;;;1.40;99.90;;;;;;8407756;28;20037;-83
2024/04/03 01:47:18;;;;;;;0.47;0.40;;;1.40;99.90;;;;;;8398631;28;20024;-83
2024/04/03 01:51:19;;;;;;;1.75;0.65;;;1.50;99.90;;;;;;8405969;28;20124;-84
2024/04/03 01:55:19;;;;;;;0.55;0.50;;;1.50;99.90;;;;;;8406259;28;20393;-82
2024/04/03 01:59:21;;;;;;;4.78;0.57;;;1.50;99.90;;;;;;8411424;28;20052;-83
2024/04/03 02:03:22;;;;;;;0.68;0.60;;;1.40;99.90;;;;;;8415461;28;20047;-82
2024/04/03 02:07:22;;;;;;;0.40;0.40;;;1.60;99.90;;;;;;8399243;28;20059;-83
2024/04/03 02:11:23;;;;;;;1.92;0.68;;;1.70;99.90;;;;;;8385008;28;20040;-83
2024/04/03 02:15:23;;;;;;;1.55;0.75;;;1.70;99.90;;;;;;8406079;28;20025;-83
2024/04/03 02:19:24;;;;;;;1.17;0.52;;;1.60;99.90;;;;;;8396191;28;20599;-82
2024/04/03 02:23:25;;;;;;;3.28;0.65;;;1.50;99.90;;;;;;8416258;28;20039;-84
2024/04/03 02:27:25;;;;;;;0.93;0.70;;;1.50;99.90;;;;;;8400129;28;20039;-82
2024/04/03 02:31:26;;;;;;;1.75;1.00;;;1.40;99.90;;;;;;8407914;28;20020;-84
2024/04/03 02:35:27;;;;;;;0.60;0.57;;;1.30;99.90;;;;;;8394776;28;20408;-84
2024/04/03 02:39:30;;;;;;;0.80;0.60;;;1.10;99.90;;;;;;8400244;28;20111;-84
2024/04/03 02:43:30;;;;;;;0.80;0.57;;;0.90;99.90;;;;;;8405770;28;20013;-83
2024/04/03 02:47:31;;;;;;;0.55;0.45;;;0.80;99.90;;;;;;8404774;28;20066;-82
2024/04/03 02:51:32;;;;;;;0.95;0.60;;;0.60;99.90;;;;;;8393423;28;20032;-84
2024/04/03 02:55:36;;;;;;;1.90;0.93;;;0.70;99.90;;;;;;8395065;28;20050;-84
2024/04/03 02:59:37;;;;;;;0.93;0.55;;;0.80;99.90;;;;;;8396793;28;20017;-83
2024/04/03 03:03:37;;;;;;;0.95;0.52;;;0.80;99.90;;;;;;8411108;28;20029;-82
2024/04/03 03:07:38;;;;;;;1.25;0.70;;;0.80;99.90;;;;;;8413589;28;20045;-84
2024/04/03 03:11:39;;;;;;;1.17;0.80;;;0.70;99.90;;;;;;8392666;28;20055;-82
2024/04/03 03:15:40;;;;;;;0.57;0.50;;;0.60;99.90;;;;;;8397978;28;20012;-82
2024/04/03 03:19:40;;;;;;;0.38;0.35;;;0.50;99.90;;;;;;8389367;28;20029;-83
2024/04/03 03:23:41;;;;;;;1.55;0.50;;;0.50;99.90;;;;;;8392726;28;20039;-83
2024/04/03 03:27:42;;;;;;;3.13;0.77;;;0.60;99.90;;;;;;8405930;28;20024;-83
2024/04/03 03:31:42;;;;;;;1.60;0.88;;;0.80;99.90;;;;;;8399000;28;20035;-82
2024/04/03 03:35:56;;;;;;;1.92;1.08;;;0.90;99.90;;;;;;8413081;28;20515;-83
2024/04/03 03:39:58;;;;;;;1.42;0.88;;;1.10;99.90;;;;;;8396684;28;20048;-83
2024/04/03 03:43:58;;;;;;;2.00;1.00;;;0.90;99.90;;;;;;8398562;28;20032;-83
2024/04/03 03:47:59;;;;;;;1.45;1.00;;;1.20;99.90;;;;;;8391003;28;20024;-83
2024/04/03 03:56:18;;;;;;;4.60;0.90;;;0.80;99.90;;;;;;8394157;28;20112;-83
2024/04/03 04:00:19;;;;;;;0.73;0.52;;;0.80;99.90;;;;;;8399828;28;20021;-83
2024/04/03 04:04:20;;;;;;;0.77;0.50;;;0.90;99.90;;;;;;8409024;28;20119;-83
2024/04/03 04:08:20;;;;;;;1.42;0.80;;;0.90;99.90;;;;;;8407725;28;20035;-82
2024/04/03 04:12:21;;;;;;;1.90;1.00;;;0.90;99.90;;;;;;8390759;28;20513;-82
2024/04/03 04:16:22;;;;;;;0.52;0.50;;;0.80;99.90;;;;;;8416795;28;20024;-83
2024/04/03 04:20:23;;;;;;;1.30;0.95;;;0.90;99.90;;;;;;8396301;28;20497;-84
2024/04/03 04:24:23;;;;;;;0.73;0.60;;;1.00;99.90;;;;;;8415059;28;20047;-82
2024/04/03 04:28:24;;;;;;;0.70;0.50;;;1.20;99.90;;;;;;8412448;28;20036;-84
2024/04/03 04:32:24;;;;;;;1.75;0.80;;;1.20;99.90;;;;;;8402911;28;20074;-84
2024/04/03 04:36:25;;;;;;;1.25;0.70;;;1.40;99.90;;;;;;8401649;28;20119;-82
2024/04/03 04:40:25;;;;;;;2.00;0.93;;;1.40;99.90;;;;;;8405678;28;20504;-84
2024/04/03 04:44:26;;;;;;;0.93;0.73;;;1.50;99.90;;;;;;8415081;28;20035;-85
2024/04/03 04:48:28;;;;;;;0.98;0.77;;;1.60;99.90;;;;;;8406443;28;20028;-86
2024/04/03 04:52:29;;;;;;;0.95;0.70;;;1.70;99.90;;;;;;8406163;28;20033;-84
2024/04/03 04:56:29;;;;;;;0.77;0.75;;;1.80;99.90;;;;;;8404250;28;20473;-85
2024/04/03 05:00:30;;;;;;;1.00;0.77;;;2.10;99.90;;;;;;8404395;28;20378;-85
2024/04/03 05:04:30;;;;;;;2.58;1.25;;;2.10;99.90;;;;;;8403338;28;20064;-86
2024/04/03 05:08:32;;;;;;;1.38;1.02;;;2.20;99.90;;;;;;8411378;28;20028;-85
2024/04/03 05:12:32;;;;;;;1.85;1.38;;;2.50;99.90;;;;;;8410693;28;20029;-84
2024/04/03 05:16:33;;;;;;;1.15;0.98;;;2.50;99.90;;;;;;8437678;28;20100;-84
2024/04/03 05:20:33;;;;;;;2.05;1.17;;;2.60;99.90;;;;;;8428007;28;20024;-86
2024/04/03 05:24:34;;;;;;;1.80;1.33;;;2.60;99.90;;;;;;8406726;28;20024;-86
2024/04/03 05:28:35;;;;;;;2.03;1.50;;;2.70;99.90;;;;;;8413120;28;20036;-84
2024/04/03 05:32:35;;;;;;;1.88;1.63;;;2.70;99.90;;;;;;8410693;28;20028;-85
2024/04/03 05:36:36;;;;;;;2.80;2.05;;;2.90;99.90;;;;;;8405981;28;20024;-84
2024/04/03 05:40:38;;;;;;;3.50;2.47;;;3.00;99.90;;;;;;8408989;28;20020;-84
2024/04/03 05:44:38;;;;;;;6.93;2.97;;;3.30;99.90;;;;;;8401172;28;20027;-84
2024/04/03 05:48:39;;;;;;;12.52;6.32;;;3.60;99.90;;;;;;8409589;28;20027;-83
2024/04/03 05:52:39;;;;;;;8.27;4.28;;;3.80;99.90;;;;;;8412074;28;20031;-84
2024/04/03 05:56:40;;;;;;;6.28;3.42;;;3.80;99.90;;;;;;8410257;28;20030;-85
2024/04/03 06:00:40;;;;;;;4.40;2.35;;;4.40;99.90;;;;;;8407130;28;20020;-85
2024/04/03 06:04:41;;;;;;;5.47;3.13;;;4.40;99.90;;;;;;8403806;28;20446;-83
2024/04/03 06:08:41;;;;;;;8.07;4.30;;;4.70;99.90;;;;;;8407456;28;20065;-83
2024/04/03 06:12:42;;;;;;;5.32;2.70;;;4.70;99.90;;;;;;8399570;28;20020;-83
2024/04/03 06:16:43;;;;;;;3.78;2.13;;;5.00;99.90;;;;;;8412574;28;20028;-83
2024/04/03 06:20:43;;;;;;;3.78;1.77;;;5.00;99.90;;;;;;8399857;28;20046;-84
2024/04/03 06:24:44;;;;;;;1.73;1.17;;;5.10;99.90;;;;;;8418244;28;20507;-83
2024/04/03 06:28:46;;;;;;;2.25;1.10;;;5.30;99.90;;;;;;8415420;28;20036;-82
2024/04/03 06:32:46;;;;;;;4.50;1.70;;;5.90;99.90;;;;;;8403421;28;20028;-83
2024/04/03 06:36:47;;;;;;;1.27;1.02;;;6.10;99.90;;;;;;8402942;28;20089;-81
2024/04/03 06:40:47;;;;;;;3.13;1.30;;;6.50;99.90;;;;;;8413231;28;20027;-83
2024/04/03 06:44:50;;;;;;;2.72;1.88;;;6.70;99.90;;;;;;8412696;28;20439;-83
2024/04/03 06:48:50;;;;;;;4.18;2.55;;;7.00;99.90;;;;;;8406258;28;20496;-82
2024/04/03 06:52:51;;;;;;;3.40;2.00;;;7.30;99.90;;;;;;8399484;28;20016;-82
2024/04/03 06:56:51;;;;;;;3.92;1.98;;;6.90;99.90;;;;;;8400420;28;20076;-82
2024/04/03 07:00:52;;;;;;;5.03;2.88;;;7.00;99.90;;;;;;8397334;28;20013;-83
2024/04/03 07:04:52;;;;;;;5.60;3.10;;;7.00;99.90;;;;;;8400726;28;20013;-81
2024/04/03 07:08:53;;;;;;;5.43;2.72;;;6.80;99.90;;;;;;8407095;28;20024;-83
2024/04/03 07:12:53;;;;;;;4.13;2.70;;;7.10;99.90;;;;;;8398746;28;20052;-82
2024/04/03 07:16:54;;;;;;;5.10;2.60;;;7.20;99.90;;;;;;8402724;28;20025;-83
2024/04/03 07:20:57;;;;;;;4.80;3.08;;;7.40;99.90;;;;;;8402398;28;20032;-83
2024/04/03 07:24:57;;;;;;;3.08;2.17;;;8.00;99.90;;;;;;8401701;28;20066;-83
2024/04/03 07:28:58;;;;;;;4.75;1.83;;;7.90;99.90;;;;;;8392960;28;20029;-83
2024/04/03 07:32:58;;;;;;;3.70;1.83;;;7.80;99.90;;;;;;8399722;28;20626;-84
2024/04/03 07:36:59;;;;;;;1.48;0.82;;;7.80;99.90;;;;;;8403674;28;20017;-84
2024/04/03 07:40:59;;;;;;;2.25;0.90;;;7.90;99.90;;;;;;8409296;28;20052;-83
2024/04/03 07:45:00;;;;;;;1.13;0.50;;;8.20;99.90;;;;;;8412207;28;20017;-84
2024/04/03 07:49:01;;;;;;;1.13;0.60;;;8.30;99.90;;;;;;8415018;28;20024;-83
2024/04/03 07:53:01;;;;;;;1.10;0.50;;;8.50;99.90;;;;;;8411678;28;20030;-84
2024/04/03 07:57:04;;;;;;;0.50;0.50;;;8.70;99.90;;;;;;8416681;28;20124;-84
2024/04/03 08:01:05;;;;;;;1.23;0.55;;;8.90;99.90;;;;;;8403688;28;20016;-83
2024/04/03 08:05:06;;;;;;;0.43;0.30;;;9.10;99.90;;;;;;8413410;28;20028;-83
2024/04/03 08:09:06;;;;;;;0.60;0.40;;;9.40;99.90;;;;;;8409188;28;20060;-84
2024/04/03 08:13:07;;;;;;;0.35;0.35;;;9.70;99.90;;;;;;8407735;28;20589;-83
2024/04/03 08:17:08;;;;;;;1.85;0.60;;;9.80;99.90;;;;;;8402670;28;20028;-84
2024/04/03 08:21:11;;;;;;;0.38;0.30;;;9.90;99.90;;;;;;8396033;28;20031;-84
2024/04/03 08:25:12;;;;;;;0.32;0.30;;;10.00;99.90;;;;;;8413396;28;20051;-84
2024/04/03 08:29:13;;;;;;;0.40;0.40;;;10.50;99.90;;;;;;8406238;28;20450;-84
2024/04/03 08:33:14;;;;;;;0.40;0.25;;;10.70;99.90;;;;;;8410733;28;20028;-82
2024/04/03 08:37:14;;;;;;;1.35;0.57;;;10.80;99.90;;;;;;8407602;28;20040;-84
2024/04/03 08:41:15;;;;;;;0.43;0.35;;;11.00;99.90;;;;;;8415036;28;20016;-84
2024/04/03 08:45:20;;;;;;;1.17;0.47;;;11.40;99.90;;;;;;8414769;28;20044;-84
2024/04/03 08:49:23;;;;;;;0.30;0.30;;;11.90;99.90;;;;;;8410467;28;20024;-84
2024/04/03 08:53:25;;;;;;;0.75;0.35;;;12.10;99.90;;;;;;8407188;28;20094;-82
2024/04/03 08:57:26;;;;;;;0.47;0.40;;;12.70;99.90;;;;;;8406356;28;20028;-84
2024/04/03 09:01:27;;;;;;;0.38;0.28;;;13.20;99.90;;;;;;8403470;28;20372;-82
2024/04/03 09:05:27;;;;;;;0.60;0.40;;;13.60;99.90;;;;;;8417512;28;20029;-84
2024/04/03 09:09:30;;;;;;;0.60;0.43;;;13.70;99.90;;;;;;8418288;28;20028;-84
2024/04/03 09:13:31;;;;;;;0.85;0.40;;;13.80;99.90;;;;;;8404368;28;20032;-84
2024/04/03 09:17:31;;;;;;;0.70;0.38;;;13.60;99.90;;;;;;8411826;28;20028;-84
2024/04/03 09:21:32;;;;;;;0.20;0.20;;;13.50;99.90;;;;;;8409442;28;20031;-84
2024/04/03 09:25:33;;;;;;;0.55;0.40;;;13.70;99.90;;;;;;8419732;28;20031;-84
2024/04/03 09:29:34;;;;;;;0.28;0.28;;;14.00;99.90;;;;;;8397226;28;20027;-82
2024/04/03 09:33:36;;;;;;;0.43;0.35;;;14.30;99.90;;;;;;8405593;28;20036;-84
2024/04/03 09:37:37;;;;;;;0.55;0.40;;;14.60;99.90;;;;;;8395223;28;20028;-84
2024/04/03 09:41:41;;;;;;;0.52;0.40;;;15.10;99.90;;;;;;8418313;28;20591;-84
2024/04/03 09:45:42;;;;;;;0.20;0.20;;;15.40;99.90;;;;;;8406410;28;20017;-84
2024/04/03 09:49:50;;;;;;;0.40;0.40;;;15.50;99.90;;;;;;8424944;28;20024;-82
2024/04/03 09:53:51;;;;;;;0.30;0.30;;;15.90;99.90;;;;;;8415715;28;20071;-84
2024/04/03 09:58:03;;;;;;;0.40;0.32;;;17.00;99.90;;;;;;8418110;28;20020;-84
2024/04/03 10:02:03;;;;;;;0.47;0.30;;;17.00;99.90;;;;;;8405509;28;20392;-84
2024/04/03 10:06:12;;;;;;;0.40;0.30;;;17.00;99.90;;;;;;8405408;28;20027;-84
2024/04/03 10:10:18;;;;;;;0.30;0.30;;;17.00;99.90;;;;;;8423143;28;20040;-84
2024/04/03 10:14:35;;;;;;;2.05;0.40;;;16.50;99.90;;;;;;8422431;28;20031;-84
2024/04/03 10:18:48;;;;;;;0.38;0.30;;;16.30;99.90;;;;;;8415377;28;20032;-84
2024/04/03 10:22:50;;;;;;;0.20;0.20;;;15.60;99.90;;;;;;8400852;28;20020;-84
2024/04/03 10:26:50;;;;;;;0.30;0.30;;;15.40;99.90;;;;;;8427349;28;20061;-83
2024/04/03 10:30:55;;;;;;;1.75;0.40;;;15.20;99.90;;;;;;8422415;28;20039;-83
2024/04/03 10:34:56;;;;;;;0.40;0.32;;;15.00;99.90;;;;;;8414298;28;20036;-84
2024/04/03 10:38:56;;;;;;;0.35;0.30;;;14.90;99.90;;;;;;8399982;28;20142;-84
2024/04/03 10:42:57;;;;;;;0.60;0.30;;;15.30;99.90;;;;;;8394848;28;20020;-84
2024/04/03 10:47:05;;;;;;;0.20;0.20;;;15.30;99.90;;;;;;8415553;28;20031;-84
2024/04/03 10:51:06;;;;;;;0.43;0.30;;;15.90;99.90;;;;;;8400936;28;20029;-84
2024/04/03 10:55:07;;;;;;;0.65;0.38;;;16.60;99.90;;;;;;8396381;28;20017;-84
2024/04/03 10:59:08;;;;;;;0.30;0.30;;;17.10;99.90;;;;;;8416485;28;20035;-83
2024/04/03 11:03:10;;;;;;;1.10;0.30;;;17.50;99.90;;;;;;8414282;28;20024;-83
2024/04/03 11:07:13;;;;;;;1.23;0.30;;;18.10;99.90;;;;;;8399743;28;20090;-83
2024/04/03 11:11:14;;;;;;;0.75;0.28;;;18.50;99.90;;;;;;8421105;28;20119;-85
2024/04/03 11:15:22;;;;;;;0.90;0.40;;;17.90;99.90;;;;;;8410645;28;20040;-83
2024/04/03 11:19:22;;;;;;;0.50;0.35;;;17.10;99.90;;;;;;8411470;28;20035;-84
2024/04/03 11:23:23;;;;;;;0.30;0.30;;;16.70;99.90;;;;;;8406421;28;20017;-84
2024/04/03 11:27:23;;;;;;;0.20;0.20;;;16.00;99.90;;;;;;8405011;28;20025;-84
2024/04/03 11:31:25;;;;;;;2.90;0.20;;;15.40;99.90;;;;;;8425539;28;20093;-84
2024/04/03 11:35:26;;;;;;;0.20;0.20;;;14.70;99.90;;;;;;8414154;28;20506;-84
2024/04/03 11:39:35;;;;;;;0.30;0.20;;;14.50;99.90;;;;;;8424148;28;20020;-84
2024/04/03 11:43:37;;;;;;;0.28;0.20;;;14.60;99.90;;;;;;8401024;28;20043;-82
2024/04/03 11:47:37;;;;;;;0.43;0.20;;;14.70;99.90;;;;;;8415335;28;20054;-84
2024/04/03 11:51:38;;;;;;;0.30;0.30;;;15.00;99.90;;;;;;8411629;28;20499;-83
2024/04/03 11:55:38;;;;;;;0.28;0.20;;;15.00;99.90;;;;;;8411863;28;20028;-84
2024/04/03 11:59:39;;;;;;;0.40;0.40;;;14.50;99.90;;;;;;8412730;28;20645;-83
2024/04/03 12:03:39;;;;;;;0.50;0.35;;;14.00;99.90;;;;;;8400388;28;20032;-83
2024/04/03 12:07:40;;;;;;;1.83;0.30;;;13.50;99.90;;;;;;8407721;28;20104;-83
2024/04/03 12:11:40;;;;;;;1.17;0.40;;;13.20;99.90;;;;;;8401927;28;20531;-83
2024/04/03 12:15:44;;;;;;;0.57;0.40;;;13.10;99.90;;;;;;8400874;28;20115;-82
2024/04/03 12:19:44;;;;;;;0.43;0.35;;;12.60;99.90;;;;;;8393366;28;20021;-82
2024/04/03 12:23:45;;;;;;;0.50;0.40;;;12.80;99.90;;;;;;8397557;28;20090;-82
2024/04/03 12:27:46;;;;;;;0.95;0.50;;;12.80;99.90;;;;;;8401498;28;20036;-81
2024/04/03 12:31:46;;;;;;;0.65;0.40;;;12.60;99.90;;;;;;8405429;28;20036;-82
2024/04/03 12:35:47;;;;;;;0.73;0.60;;;12.30;99.90;;;;;;8396394;28;20036;-81
2024/04/03 12:39:47;;;;;;;0.40;0.40;;;11.80;99.90;;;;;;8393868;28;20074;-81
2024/04/03 12:43:48;;;;;;;0.95;0.60;;;11.50;99.90;;;;;;8398635;28;20566;-79
2024/04/03 12:47:49;;;;;;;0.95;0.60;;;11.40;99.90;;;;;;8399035;28;20024;-81
2024/04/03 12:51:50;;;;;;;0.90;0.55;;;10.90;99.90;;;;;;8403186;28;20051;-81
2024/04/03 12:55:50;;;;;;;1.30;0.60;;;10.60;99.90;;;;;;8406783;28;21408;-82
2024/04/03 12:59:52;;;;;;;0.82;0.50;;;10.50;99.90;;;;;;8397517;28;20059;-80
2024/04/03 13:03:54;;;;;;;0.98;0.47;;;10.40;99.90;;;;;;8405927;28;20507;-81
2024/04/03 13:07:55;;;;;;;1.48;0.75;;;10.30;99.90;;;;;;8401498;28;20032;-81
2024/04/03 13:11:56;;;;;;;1.48;0.63;;;10.10;99.90;;;;;;8397484;28;20032;-81
2024/04/03 13:15:57;;;;;;;1.33;0.80;;;10.10;99.90;;;;;;8401733;28;20016;-81
2024/04/03 13:19:58;;;;;;;1.50;0.85;;;10.20;99.90;;;;;;8406365;28;20492;-82
2024/04/03 13:23:58;;;;;;;1.17;0.80;;;10.20;99.90;;;;;;8398231;28;20020;-83
2024/04/03 13:27:59;;;;;;;3.25;1.00;;;10.50;99.90;;;;;;8403084;28;20024;-82
2024/04/03 13:31:59;;;;;;;1.00;0.80;;;10.60;99.90;;;;;;8406770;28;20476;-82
2024/04/03 13:36:00;;;;;;;1.00;0.80;;;10.70;99.90;;;;;;8399961;28;20029;-83
2024/04/03 13:40:02;;;;;;;0.63;0.60;;;10.70;99.90;;;;;;8394590;28;20017;-82
2024/04/03 13:44:02;;;;;;;0.77;0.50;;;10.60;99.90;;;;;;8402876;28;20548;-82
2024/04/03 13:48:03;;;;;;;0.45;0.45;;;10.50;99.90;;;;;;8400112;28;20036;-82
2024/04/03 13:52:04;;;;;;;0.68;0.60;;;10.20;99.90;;;;;;8407929;28;20075;-81
2024/04/03 13:56:06;;;;;;;1.45;0.88;;;10.00;99.90;;;;;;8410071;28;20033;-81
2024/04/03 14:00:09;;;;;;;1.35;0.75;;;10.20;99.90;;;;;;8426893;28;20023;-83
2024/04/03 14:04:10;;;;;;;0.98;0.68;;;10.40;99.90;;;;;;8409374;28;20027;-83
2024/04/03 14:08:10;;;;;;;0.70;0.60;;;10.60;99.90;;;;;;8417615;28;20020;-83
2024/04/03 14:12:11;;;;;;;2.40;0.90;;;10.70;99.90;;;;;;8395009;28;20047;-83
2024/04/03 14:16:11;;;;;;;2.53;0.90;;;11.00;99.90;;;;;;8387078;28;20032;-83
2024/04/03 14:20:12;;;;;;;0.93;0.70;;;11.20;99.90;;;;;;8390825;28;20111;-81
2024/04/03 14:24:12;;;;;;;1.45;0.85;;;11.30;99.90;;;;;;8394897;28;20033;-82
2024/04/03 14:28:18;;;;;;;1.00;0.60;;;11.10;99.90;;;;;;8404613;28;20031;-81
2024/04/03 14:32:19;;;;;;;1.52;1.10;;;10.80;99.90;;;;;;8389617;28;20032;-81
2024/04/03 14:36:19;;;;;;;0.93;0.90;;;10.40;99.90;;;;;;8399440;28;20024;-81
2024/04/03 14:40:20;;;;;;;1.33;1.20;;;10.30;99.90;;;;;;8399249;28;20024;-80
2024/04/03 14:44:20;;;;;;;0.90;0.60;;;10.10;99.90;;;;;;8415922;28;20404;-81
2024/04/03 14:48:21;;;;;;;0.68;0.52;;;9.90;99.90;;;;;;8388890;28;20128;-82
2024/04/03 14:52:22;;;;;;;1.20;0.70;;;9.80;99.90;;;;;;8395418;28;20036;-81
2024/04/03 14:56:22;;;;;;;0.82;0.50;;;9.80;99.90;;;;;;8391982;28;20262;-80
2024/04/03 15:00:23;;;;;;;1.40;0.88;;;9.60;99.90;;;;;;8396683;28;20070;-80
2024/04/03 15:04:23;;;;;;;1.58;0.95;;;9.50;99.90;;;;;;8394598;28;20054;-81
2024/04/03 15:08:24;;;;;;;1.30;0.68;;;9.50;99.90;;;;;;8389303;28;20025;-82
2024/04/03 15:12:25;;;;;;;0.90;0.70;;;9.50;99.90;;;;;;8397391;28;20492;-81
2024/04/03 15:16:25;;;;;;;1.63;0.60;;;9.50;99.90;;;;;;8397882;28;20024;-80
2024/04/03 15:20:26;;;;;;;3.03;1.63;;;9.40;99.90;;;;;;8390160;28;20016;-80
2024/04/03 15:24:27;;;;;;;2.42;0.90;;;9.40;99.90;;;;;;8388685;28;20392;-81
2024/04/03 15:28:27;;;;;;;1.45;1.02;;;9.30;99.90;;;;;;8390734;28;20033;-79
2024/04/03 15:32:28;;;;;;;1.27;0.80;;;9.30;99.90;;;;;;8390808;28;20072;-81
2024/04/03 15:36:30;;;;;;;1.63;0.70;;;9.50;99.90;;;;;;8389149;28;20085;-81
2024/04/03 15:40:31;;;;;;;0.93;0.80;;;9.40;99.90;;;;;;8397256;28;20028;-78
2024/04/03 15:44:32;;;;;;;1.77;1.15;;;9.50;99.90;;;;;;8415039;28;20049;-78
2024/04/03 15:48:32;;;;;;;1.83;0.70;;;9.60;99.90;;;;;;8405351;28;20031;-80
2024/04/03 15:52:34;;;;;;;1.88;0.85;;;9.50;99.90;;;;;;8396894;28;20815;-81
2024/04/03 15:56:35;;;;;;;1.10;0.80;;;9.50;99.90;;;;;;8396032;28;20481;-82
2024/04/03 16:00:35;;;;;;;3.20;0.60;;;9.50;99.90;;;;;;8399723;28;20031;-81
2024/04/03 16:04:36;;;;;;;1.20;0.70;;;9.60;99.90;;;;;;8405438;28;20031;-81
2024/04/03 16:08:36;;;;;;;0.50;0.30;;;9.50;99.90;;;;;;8405516;28;20484;-80
2024/04/03 16:12:37;;;;;;;0.45;0.45;;;9.60;99.90;;;;;;8395055;28;20043;-81
2024/04/03 16:16:38;;;;;;;0.40;0.40;;;9.50;99.90;;;;;;8403295;28;20021;-81
2024/04/03 16:20:38;;;;;;;0.73;0.43;;;9.60;99.90;;;;;;8409788;28;20108;-82
2024/04/03 16:24:41;;;;;;;0.20;0.20;;;9.50;99.90;;;;;;8396233;28;21361;-81
2024/04/03 16:28:41;;;;;;;0.20;0.20;;;9.50;99.90;;;;;;8403298;28;20615;-81
2024/04/03 16:32:42;;;;;;;1.75;0.35;;;9.50;99.90;;;;;;8403723;28;20054;-82
2024/04/03 16:36:42;;;;;;;0.40;0.30;;;9.60;99.90;;;;;;8409457;28;20074;-81
2024/04/03 16:40:43;;;;;;;0.50;0.40;;;9.50;99.90;;;;;;8406588;28;20024;-83
2024/04/03 16:44:44;;;;;;;0.20;0.20;;;9.60;99.90;;;;;;8407418;28;20036;-82
2024/04/03 16:48:44;;;;;;;0.55;0.38;;;9.60;99.90;;;;;;8410900;28;20028;-82
2024/04/03 16:52:45;;;;;;;1.15;0.25;;;9.70;99.90;;;;;;8406435;28;20024;-82
2024/04/03 16:56:45;;;;;;;0.32;0.30;;;9.90;99.90;;;;;;8410336;28;20423;-83
2024/04/03 17:00:46;;;;;;;0.45;0.20;;;9.90;99.90;;;;;;8398766;28;20039;-83
2024/04/03 17:04:47;;;;;;;1.10;0.20;;;9.90;99.90;;;;;;8404521;28;20411;-82
2024/04/03 17:08:47;;;;;;;0.25;0.20;;;9.80;99.90;;;;;;8413966;28;20046;-83
2024/04/03 17:12:48;;;;;;;0.70;0.25;;;9.90;99.90;;;;;;8408989;28;20044;-82
2024/04/03 17:16:48;;;;;;;0.20;0.20;;;9.80;99.90;;;;;;8400316;28;20021;-82
2024/04/03 17:20:49;;;;;;;0.20;0.20;;;9.90;99.90;;;;;;8405118;28;20021;-83
2024/04/03 17:24:49;;;;;;;0.22;0.22;;;10.00;99.90;;;;;;8410528;28;20043;-83
2024/04/03 17:28:50;;;;;;;1.00;0.43;;;10.00;99.90;;;;;;8415295;28;20035;-82
2024/04/03 17:32:50;;;;;;;0.85;0.60;;;9.90;99.90;;;;;;8400283;28;20035;-83
2024/04/03 17:36:51;;;;;;;0.50;0.30;;;9.90;99.90;;;;;;8414887;28;20020;-81
2024/04/03 17:40:51;;;;;;;0.80;0.40;;;9.80;99.90;;;;;;8408853;28;20028;-82
2024/04/03 17:44:52;;;;;;;0.52;0.30;;;9.70;99.90;;;;;;8411066;28;20044;-83
2024/04/03 17:48:52;;;;;;;1.15;0.60;;;9.50;99.90;;;;;;8407152;28;20031;-83
2024/04/03 17:52:53;;;;;;;1.08;0.50;;;9.30;99.90;;;;;;8401505;28;20031;-83
2024/04/03 17:56:53;;;;;;;4.88;1.70;;;9.20;99.90;;;;;;8422402;28;20070;-82
2024/04/03 18:00:54;;;;;;;0.85;0.65;;;9.10;99.90;;;;;;8413609;28;20028;-83
2024/04/03 18:04:54;;;;;;;2.30;1.00;;;9.10;99.90;;;;;;8410520;28;20028;-83
2024/04/03 18:08:55;;;;;;;0.98;0.75;;;9.10;99.90;;;;;;8402544;28;20580;-83
2024/04/03 18:12:56;;;;;;;0.80;0.73;;;9.00;99.90;;;;;;8408981;28;20043;-81
2024/04/03 18:16:56;;;;;;;0.70;0.40;;;9.00;99.90;;;;;;8406534;28;20037;-81
2024/04/03 18:20:58;;;;;;;0.95;0.60;;;9.00;99.90;;;;;;8397836;28;20021;-82
2024/04/03 18:25:01;;;;;;;0.52;0.52;;;8.80;99.90;;;;;;8403072;28;20381;-83
2024/04/03 18:29:02;;;;;;;0.82;0.47;;;8.70;99.90;;;;;;8402751;28;20017;-83
2024/04/03 18:33:03;;;;;;;1.33;0.50;;;8.70;99.90;;;;;;8395606;28;20050;-84
2024/04/03 18:37:03;;;;;;;0.65;0.35;;;8.70;99.90;;;;;;8397551;28;20496;-83
2024/04/03 18:41:15;;;;;;;1.25;0.57;;;8.70;99.90;;;;;;8399371;28;20020;-84
2024/04/03 18:45:17;;;;;;;0.82;0.43;;;8.80;99.90;;;;;;8398143;28;20036;-84
2024/04/03 18:49:17;;;;;;;1.98;0.45;;;9.00;99.90;;;;;;8399933;28;20031;-84
2024/04/03 18:53:21;;;;;;;0.47;0.40;;;9.00;99.90;;;;;;8400943;28;20111;-84
2024/04/03 18:57:21;;;;;;;0.75;0.57;;;9.00;99.90;;;;;;8396164;28;20024;-85
2024/04/03 19:01:28;;;;;;;1.20;0.60;;;9.10;99.90;;;;;;8402195;28;20798;-82
2024/04/03 19:05:29;;;;;;;0.93;0.50;;;9.00;99.90;;;;;;8396455;28;20107;-84
2024/04/03 19:09:39;;;;;;;1.10;0.52;;;9.00;99.90;;;;;;8400168;28;20028;-84
2024/04/03 19:13:40;;;;;;;0.63;0.50;;;9.00;99.90;;;;;;8389237;28;20040;-84
2024/04/03 19:17:40;;;;;;;1.05;0.50;;;9.00;99.90;;;;;;8393960;28;20021;-83
2024/04/03 19:21:47;;;;;;;0.70;0.57;;;8.90;99.90;;;;;;8394435;28;20078;-84
2024/04/03 19:25:47;;;;;;;0.65;0.45;;;8.90;99.90;;;;;;8400880;28;20032;-84
2024/04/03 19:29:50;;;;;;;1.95;0.50;;;8.90;99.90;;;;;;8396715;28;20082;-84
2024/04/03 19:38:16;;;;;;;1.60;0.50;;;8.50;99.90;;;;;;9014453;22;20122;-83
2024/04/03 19:42:17;;;;;;;0.50;0.40;;;8.50;99.90;;;;;;8340661;28;20482;-84
2024/04/03 19:46:17;;;;;;;1.45;0.80;;;8.60;99.90;;;;;;8336438;28;20044;-84
2024/04/03 19:50:18;;;;;;;1.08;0.43;;;8.50;99.90;;;;;;8343082;28;20926;-83
2024/04/03 19:54:18;;;;;;;0.80;0.47;;;8.40;99.90;;;;;;8332797;28;20049;-84
2024/04/03 19:58:20;;;;;;;0.88;0.57;;;8.40;99.90;;;;;;8335884;28;20422;-84
2024/04/03 20:02:21;;;;;;;0.60;0.55;;;8.50;99.90;;;;;;8364463;28;20025;-82
2024/04/03 20:06:21;;;;;;;0.90;0.50;;;8.60;99.90;;;;;;8333493;28;20022;-84
2024/04/03 20:10:46;;;;;;;0.38;0.25;;;8.50;99.90;;;;;;8331142;28;20029;-84
2024/04/03 20:14:47;;;;;;;1.10;0.40;;;8.60;99.90;;;;;;8337080;28;20485;-84
2024/04/03 20:18:48;;;;;;;0.20;0.20;;;8.80;99.90;;;;;;8343782;28;20025;-83
2024/04/03 20:22:49;;;;;;;0.95;0.35;;;8.90;99.90;;;;;;8355478;28;20092;-84
2024/04/03 20:26:50;;;;;;;1.05;0.50;;;8.80;99.90;;;;;;8337156;28;20045;-84
2024/04/03 20:30:50;;;;;;;0.30;0.30;;;8.70;99.90;;;;;;8352440;28;20041;-84
2024/04/03 20:34:54;;;;;;;0.70;0.30;;;8.60;99.90;;;;;;8333960;28;20041;-84
2024/04/03 20:51:59;;;;;;;;;;;8.50;99.90;;;;;;8337468;28;20168;-83
2024/04/03 20:56:10;;;;;;;0.20;0.20;;;8.50;99.90;;;;;;8317791;28;19976;-83
2024/04/03 21:00:13;;;;;;;;;;;8.40;99.90;;;;;;8310733;28;20582;-82
2024/04/03 21:04:23;;;;;;;0.65;0.52;;;8.50;99.90;;;;;;8314598;28;19913;-83
2024/04/03 21:08:33;;;;;;;1.27;0.50;;;8.60;99.90;;;;;;8318334;28;20120;-82
2024/04/03 21:12:52;;;;;;;1.25;0.50;;;8.80;99.90;;;;;;8332481;28;20029;-84
2024/04/03 21:17:08;;;;;;;0.43;0.40;;;9.00;99.90;;;;;;8314413;28;20112;-83
2024/04/03 21:21:11;;;;;;;0.73;0.50;;;9.20;99.90;;;;;;8316496;28;20029;-84
2024/04/03 21:25:17;;;;;;;0.38;0.38;;;9.40;99.90;;;;;;8317640;28;20025;-82
2024/04/03 21:29:34;;;;;;;0.65;0.28;;;9.40;99.90;;;;;;8311226;28;20375;-83
2024/04/03 21:33:59;;;;;;;1.35;0.50;;;9.30;99.90;;;;;;8317911;28;20021;-83